Time;durP1;ratioP1;P1;durP2;ratioP2;P2;SDS_P1;SDS_P2;PMS_P1;PMS_P2;Temp;Humidity;BMP_temperature;BMP_pressure;BME280_temperature;BME280_humidity;BME280_pressure;Samples;Min_cycle;Max_cycle;Signal;HPM_P1;HPM_P2
2023/05/12 00:01:31;;;;;;;;;;;;;;;;;;5055664;28;19929;-78
2023/05/12 00:03:58;;;;;;;;;;;;;;;;;;5060418;28;19935;-78
2023/05/12 00:06:26;;;;;;;;;;;;;;;;;;5068879;28;19928;-80
2023/05/12 00:08:53;;;;;;;;;;;;;;;;;;5063568;28;19927;-78
2023/05/12 00:11:21;;;;;;;;;;;;;;;;;;5063100;28;19929;-78
2023/05/12 00:13:48;;;;;;;;;;;;;;;;;;5063530;28;19920;-78
2023/05/12 00:16:17;;;;;;;;;;;;;;;;;;5059923;28;19928;-80
2023/05/12 00:18:45;;;;;;;;;;;;;;;;;;5066519;28;19927;-80
2023/05/12 00:21:12;;;;;;;;;;;;;;;;;;5062545;28;19920;-78
2023/05/12 00:23:40;;;;;;;;;;;;;;;;;;5064021;28;19921;-77
2023/05/12 00:26:07;;;;;;;;;;;;;;;;;;5061022;28;19921;-78
2023/05/12 00:28:34;;;;;;;;;;;;;;;;;;5055336;28;19920;-80
2023/05/12 00:31:07;;;;;;;;;;;;;;;;;;5062306;28;19928;-79
2023/05/12 00:33:35;;;;;;;;;;;;;;;;;;5071345;28;19920;-79
2023/05/12 00:36:07;;;;;;;;;;;;;;;;;;5064811;28;19932;-78
2023/05/12 00:38:40;;;;;;;;;;;;;;;;;;5070576;28;19920;-78
2023/05/12 00:41:07;;;;;;;;;;;;;;;;;;5053084;28;19928;-78
2023/05/12 00:43:35;;;;;;;;;;;;;;;;;;5058296;28;19922;-77
2023/05/12 00:46:02;;;;;;;;;;;;;;;;;;5059081;28;19928;-78
2023/05/12 00:48:35;;;;;;;;;;;;;;;;;;5058940;28;19931;-78
2023/05/12 00:51:02;;;;;;;;;;;;;;;;;;5061938;28;19944;-77
2023/05/12 00:53:30;;;;;;;;;;;;;;;;;;5065490;28;19921;-78
2023/05/12 00:55:57;;;;;;;;;;;;;;;;;;5062036;28;20364;-79
2023/05/12 00:58:26;;;;;;;;;;;;;;;;;;5061325;28;19921;-78
2023/05/12 01:00:55;;;;;;;;;;;;;;;;;;5072523;28;19920;-78
2023/05/12 01:03:22;;;;;;;;;;;;;;;;;;5064355;28;20400;-80
2023/05/12 01:05:50;;;;;;;;;;;;;;;;;;5074842;28;20254;-78
2023/05/12 01:08:17;;;;;;;;;;;;;;;;;;5057901;28;19921;-79
2023/05/12 01:10:45;;;;;;;;;;;;;;;;;;5064324;28;19927;-77
2023/05/12 01:13:15;;;;;;;;;;;;;;;;;;5070521;28;19921;-79
2023/05/12 01:15:48;;;;;;;;;;;;;;;;;;5067258;28;19921;-78
2023/05/12 01:18:16;;;;;;;;;;;;;;;;;;5062712;28;19925;-78
2023/05/12 01:20:43;;;;;;;;;;;;;;;;;;5068087;28;19921;-77
2023/05/12 01:23:12;;;;;;;;;;;;;;;;;;5066973;28;19929;-79
2023/05/12 01:25:39;;;;;;;;;;;;;;;;;;5055943;28;19920;-77
2023/05/12 01:28:07;;;;;;;;;;;;;;;;;;5068462;28;19927;-78
2023/05/12 01:30:40;;;;;;;;;;;;;;;;;;5066103;28;19928;-77
2023/05/12 01:33:09;;;;;;;;;;;;;;;;;;5061692;28;19920;-78
2023/05/12 01:35:37;;;;;;;;;;;;;;;;;;5061045;28;19925;-76
2023/05/12 01:38:10;;;;;;;;;;;;;;;;;;5071012;28;19927;-78
2023/05/12 01:40:39;;;;;;;;;;;;;;;;;;5060771;28;19920;-78
2023/05/12 01:43:12;;;;;;;;;;;;;;;;;;5062037;28;20557;-77
2023/05/12 01:45:39;;;;;;;;;;;;;;;;;;5062433;28;19921;-79
2023/05/12 01:48:07;;;;;;;;;;;;;;;;;;5067025;28;19920;-77
2023/05/12 01:50:35;;;;;;;;;;;;;;;;;;5068354;28;19939;-77
2023/05/12 01:53:05;;;;;;;;;;;;;;;;;;5066120;28;20273;-77
2023/05/12 01:55:33;;;;;;;;;;;;;;;;;;5066937;28;19927;-80
2023/05/12 01:58:01;;;;;;;;;;;;;;;;;;5060502;28;19927;-78
2023/05/12 02:00:34;;;;;;;;;;;;;;;;;;5062044;28;20292;-78
2023/05/12 02:03:02;;;;;;;;;;;;;;;;;;5065312;28;19936;-77
2023/05/12 02:05:30;;;;;;;;;;;;;;;;;;5068827;28;20266;-76
2023/05/12 02:08:03;;;;;;;;;;;;;;;;;;5070565;28;19924;-77
2023/05/12 02:10:31;;;;;;;;;;;;;;;;;;5068632;28;19932;-77
2023/05/12 02:12:58;;;;;;;;;;;;;;;;;;5070371;28;19927;-78
2023/05/12 02:15:27;;;;;;;;;;;;;;;;;;5077827;28;19924;-77
2023/05/12 02:17:56;;;;;;;;;;;;;;;;;;5070146;28;19920;-77
2023/05/12 02:20:23;;;;;;;;;;;;;;;;;;5065495;28;19924;-78
2023/05/12 02:22:51;;;;;;;;;;;;;;;;;;5065951;28;20358;-77
2023/05/12 02:25:18;;;;;;;;;;;;;;;;;;5066969;28;20246;-77
2023/05/12 02:27:46;;;;;;;;;;;;;;;;;;5063081;28;19924;-78
2023/05/12 02:30:15;;;;;;;;;;;;;;;;;;5067383;28;19927;-76
2023/05/12 02:32:42;;;;;;;;;;;;;;;;;;5058692;28;19944;-77
2023/05/12 02:35:10;;;;;;;;;;;;;;;;;;5065215;28;19921;-78
2023/05/12 02:37:38;;;;;;;;;;;;;;;;;;5065416;28;20352;-79
2023/05/12 02:40:06;;;;;;;;;;;;;;;;;;5058829;28;20293;-77
2023/05/12 02:42:37;;;;;;;;;;;;;;;;;;5065538;28;19924;-79
2023/05/12 02:45:04;;;;;;;;;;;;;;;;;;5070307;28;19924;-80
2023/05/12 02:47:31;;;;;;;;;;;;;;;;;;5063304;28;19925;-78
2023/05/12 02:49:59;;;;;;;;;;;;;;;;;;5061699;28;20380;-77
2023/05/12 02:52:27;;;;;;;;;;;;;;;;;;5062052;28;19920;-77
2023/05/12 02:54:59;;;;;;;;;;;;;;;;;;5059909;28;19920;-78
2023/05/12 02:57:32;;;;;;;;;;;;;;;;;;5057003;28;19932;-78
2023/05/12 03:00:00;;;;;;;;;;;;;;;;;;5065671;28;19920;-77
2023/05/12 03:02:27;;;;;;;;;;;;;;;;;;5061378;28;19932;-79
2023/05/12 03:04:55;;;;;;;;;;;;;;;;;;5067189;28;19939;-75
2023/05/12 03:07:23;;;;;;;;;;;;;;;;;;5069943;28;19928;-77
2023/05/12 03:09:55;;;;;;;;;;;;;;;;;;5069988;28;20373;-77
2023/05/12 03:12:23;;;;;;;;;;;;;;;;;;5060182;28;19921;-78
2023/05/12 03:14:51;;;;;;;;;;;;;;;;;;5068423;28;19924;-77
2023/05/12 03:17:18;;;;;;;;;;;;;;;;;;5066294;28;19920;-79
2023/05/12 03:19:46;;;;;;;;;;;;;;;;;;5061217;28;20297;-76
2023/05/12 03:22:14;;;;;;;;;;;;;;;;;;5060668;28;19927;-78
2023/05/12 03:24:42;;;;;;;;;;;;;;;;;;5057863;28;19921;-76
2023/05/12 03:27:09;;;;;;;;;;;;;;;;;;5060189;28;19921;-77
2023/05/12 03:29:37;;;;;;;;;;;;;;;;;;5061301;28;19920;-77
2023/05/12 03:32:04;;;;;;;;;;;;;;;;;;5065653;28;19929;-77
2023/05/12 03:34:32;;;;;;;;;;;;;;;;;;5058651;28;19931;-77
2023/05/12 03:36:59;;;;;;;;;;;;;;;;;;5056393;28;19921;-79
2023/05/12 03:39:27;;;;;;;;;;;;;;;;;;5060982;28;19932;-77
2023/05/12 03:41:54;;;;;;;;;;;;;;;;;;5063933;28;19931;-77
2023/05/12 03:44:22;;;;;;;;;;;;;;;;;;5057227;28;20312;-78
2023/05/12 03:46:50;;;;;;;;;;;;;;;;;;5077479;28;19921;-77
2023/05/12 03:49:17;;;;;;;;;;;;;;;;;;5063934;28;19925;-78
2023/05/12 03:51:50;;;;;;;;;;;;;;;;;;5060252;28;19927;-78
2023/05/12 03:54:18;;;;;;;;;;;;;;;;;;5059637;28;20383;-77
2023/05/12 03:56:46;;;;;;;;;;;;;;;;;;5065864;28;19938;-78
2023/05/12 03:59:18;;;;;;;;;;;;;;;;;;5079720;28;19927;-78
2023/05/12 04:01:52;;;;;;;;;;;;;;;;;;5063647;28;19927;-78
2023/05/12 04:04:19;;;;;;;;;;;;;;;;;;5058948;28;20383;-77
2023/05/12 04:06:46;;;;;;;;;;;;;;;;;;5068351;28;20316;-78
2023/05/12 04:09:15;;;;;;;;;;;;;;;;;;5067517;28;20373;-78
2023/05/12 04:11:47;;;;;;;;;;;;;;;;;;5059806;28;19924;-79
2023/05/12 04:14:16;;;;;;;;;;;;;;;;;;5060262;28;19920;-77
2023/05/12 04:16:48;;;;;;;;;;;;;;;;;;5065584;28;19921;-78
2023/05/12 04:19:16;;;;;;;;;;;;;;;;;;5057996;28;19920;-77
2023/05/12 04:21:50;;;;;;;;;;;;;;;;;;5064605;28;19921;-78
2023/05/12 04:24:17;;;;;;;;;;;;;;;;;;5059774;28;19924;-78
2023/05/12 04:26:45;;;;;;;;;;;;;;;;;;5061235;28;19933;-77
2023/05/12 04:29:13;;;;;;;;;;;;;;;;;;5054487;28;19932;-77
2023/05/12 04:31:40;;;;;;;;;;;;;;;;;;5057530;28;19921;-78
2023/05/12 04:34:13;;;;;;;;;;;;;;;;;;5063972;28;20404;-78
2023/05/12 04:36:40;;;;;;;;;;;;;;;;;;5063822;28;20270;-77
2023/05/12 04:39:08;;;;;;;;;;;;;;;;;;5058430;28;20388;-78
2023/05/12 04:41:40;;;;;;;;;;;;;;;;;;5064539;28;19927;-77
2023/05/12 04:44:08;;;;;;;;;;;;;;;;;;5063588;28;19931;-76
2023/05/12 04:46:42;;;;;;;;;;;;;;;;;;5063372;28;19928;-78
2023/05/12 04:49:09;;;;;;;;;;;;;;;;;;5063718;28;19921;-76
2023/05/12 04:51:43;;;;;;;;;;;;;;;;;;5063063;28;20365;-76
2023/05/12 04:54:10;;;;;;;;;;;;;;;;;;5063728;28;19920;-76
2023/05/12 04:56:38;;;;;;;;;;;;;;;;;;5062500;28;19924;-77
2023/05/12 04:59:06;;;;;;;;;;;;;;;;;;5072608;28;19921;-76
2023/05/12 05:01:39;;;;;;;;;;;;;;;;;;5059279;28;19928;-79
2023/05/12 05:04:06;;;;;;;;;;;;;;;;;;5062307;28;19927;-77
2023/05/12 05:06:34;;;;;;;;;;;;;;;;;;5059972;28;19921;-77
2023/05/12 05:09:06;;;;;;;;;;;;;;;;;;5059950;28;19928;-77
2023/05/12 05:11:34;;;;;;;;;;;;;;;;;;5060130;28;20357;-77
2023/05/12 05:14:01;;;;;;;;;;;;;;;;;;5069911;28;20312;-79
2023/05/12 05:16:29;;;;;;;;;;;;;;;;;;5063458;28;19920;-80
2023/05/12 05:19:02;;;;;;;;;;;;;;;;;;5066093;28;19920;-77
2023/05/12 05:21:29;;;;;;;;;;;;;;;;;;5059227;28;19927;-79
2023/05/12 05:23:57;;;;;;;;;;;;;;;;;;5067669;28;20373;-76
2023/05/12 05:26:24;;;;;;;;;;;;;;;;;;5075282;28;19921;-78
2023/05/12 05:28:53;;;;;;;;;;;;;;;;;;5061905;28;19925;-77
2023/05/12 05:31:22;;;;;;;;;;;;;;;;;;5069536;28;19924;-78
2023/05/12 05:33:55;;;;;;;;;;;;;;;;;;5069469;28;19921;-77
2023/05/12 05:36:25;;;;;;;;;;;;;;;;;;5058772;28;20366;-77
2023/05/12 05:38:52;;;;;;;;;;;;;;;;;;5066841;28;20657;-77
2023/05/12 05:41:21;;;;;;;;;;;;;;;;;;5056981;28;20374;-77
2023/05/12 05:43:49;;;;;;;;;;;;;;;;;;5062309;28;19928;-77
2023/05/12 05:46:16;;;;;;;;;;;;;;;;;;5069581;28;20519;-77
2023/05/12 05:48:44;;;;;;;;;;;;;;;;;;5065514;28;19932;-76
2023/05/12 05:51:16;;;;;;;;;;;;;;;;;;5061564;28;19938;-76
2023/05/12 05:53:44;;;;;;;;;;;;;;;;;;5068489;28;19921;-80
2023/05/12 05:56:14;;;;;;;;;;;;;;;;;;5060755;28;20354;-78
2023/05/12 05:58:46;;;;;;;;;;;;;;;;;;5058618;28;19924;-78
2023/05/12 06:01:14;;;;;;;;;;;;;;;;;;5059299;28;19920;-78
2023/05/12 06:03:42;;;;;;;;;;;;;;;;;;5057579;28;19940;-79
2023/05/12 06:06:09;;;;;;;;;;;;;;;;;;5061469;28;19920;-76
2023/05/12 06:08:37;;;;;;;;;;;;;;;;;;5067831;28;19929;-77
2023/05/12 06:11:09;;;;;;;;;;;;;;;;;;5059689;28;19924;-77
2023/05/12 06:13:37;;;;;;;;;;;;;;;;;;5061363;28;19929;-77
2023/05/12 06:16:10;;;;;;;;;;;;;;;;;;5061252;28;19932;-76
2023/05/12 06:18:37;;;;;;;;;;;;;;;;;;5061640;28;19924;-77
2023/05/12 06:21:05;;;;;;;;;;;;;;;;;;5060068;28;19927;-78
2023/05/12 06:23:37;;;;;;;;;;;;;;;;;;5057604;28;20254;-77
2023/05/12 06:26:06;;;;;;;;;;;;;;;;;;5063608;28;19920;-77
2023/05/12 06:28:34;;;;;;;;;;;;;;;;;;5056634;28;19924;-77
2023/05/12 06:31:06;;;;;;;;;;;;;;;;;;5060433;28;19924;-77
2023/05/12 06:33:34;;;;;;;;;;;;;;;;;;5059683;28;19931;-82
2023/05/12 06:36:01;;;;;;;;;;;;;;;;;;5059465;28;19928;-79
2023/05/12 06:38:29;;;;;;;;;;;;;;;;;;5058226;28;19924;-76
2023/05/12 06:40:56;;;;;;;;;;;;;;;;;;5075572;28;19947;-77
2023/05/12 06:43:24;;;;;;;;;;;;;;;;;;5058662;28;19924;-78
2023/05/12 06:45:55;;;;;;;;;;;;;;;;;;5060727;28;20308;-76
2023/05/12 06:48:28;;;;;;;;;;;;;;;;;;5060596;28;20684;-79
2023/05/12 06:50:57;;;;;;;;;;;;;;;;;;5052790;28;20281;-76
2023/05/12 06:53:28;;;;;;;;;;;;;;;;;;5059430;28;20686;-77
2023/05/12 06:55:56;;;;;;;;;;;;;;;;;;5060654;28;19921;-77
2023/05/12 06:58:23;;;;;;;;;;;;;;;;;;5058998;28;20011;-76
2023/05/12 07:00:51;;;;;;;;;;;;;;;;;;5061116;28;19924;-77
2023/05/12 07:03:18;;;;;;;;;;;;;;;;;;5058753;28;19920;-79
2023/05/12 07:05:51;;;;;;;;;;;;;;;;;;5065126;28;19927;-77
2023/05/12 07:08:19;;;;;;;;;;;;;;;;;;5056893;28;19925;-80
2023/05/12 07:10:46;;;;;;;;;;;;;;;;;;5075926;28;19921;-76
2023/05/12 07:13:14;;;;;;;;;;;;;;;;;;5060014;28;20239;-78
2023/05/12 07:15:46;;;;;;;;;;;;;;;;;;5061275;28;19921;-77
2023/05/12 07:18:19;;;;;;;;;;;;;;;;;;5058729;28;19931;-77
2023/05/12 07:20:46;;;;;;;;;;;;;;;;;;5057944;28;19921;-78
2023/05/12 07:23:14;;;;;;;;;;;;;;;;;;5063275;28;20296;-75
2023/05/12 07:25:46;;;;;;;;;;;;;;;;;;5059484;28;20369;-76
2023/05/12 07:28:14;;;;;;;;;;;;;;;;;;5060408;28;19931;-76
2023/05/12 07:30:41;;;;;;;;;;;;;;;;;;5060389;28;19928;-76
2023/05/12 07:33:09;;;;;;;;;;;;;;;;;;5058056;28;19928;-76
2023/05/12 07:35:36;;;;;;;;;;;;;;;;;;5059847;28;19928;-79
2023/05/12 07:38:04;;;;;;;;;;;;;;;;;;5058329;28;20404;-78
2023/05/12 07:40:31;;;;;;;;;;;;;;;;;;5055445;28;19928;-77
2023/05/12 07:42:59;;;;;;;;;;;;;;;;;;5058098;28;19920;-77
2023/05/12 07:45:27;;;;;;;;;;;;;;;;;;5059279;28;19928;-76
2023/05/12 07:47:59;;;;;;;;;;;;;;;;;;5051410;28;19935;-78
2023/05/12 07:50:27;;;;;;;;;;;;;;;;;;5042469;28;19975;-79
2023/05/12 07:52:59;;;;;;;;;;;;;;;;;;5047709;28;19929;-80
2023/05/12 07:55:27;;;;;;;;;;;;;;;;;;5045038;28;19928;-80
2023/05/12 07:57:54;;;;;;;;;;;;;;;;;;5047777;28;19929;-79
2023/05/12 08:00:21;;;;;;;;;;;;;;;;;;5050717;28;19927;-76
2023/05/12 08:02:49;;;;;;;;;;;;;;;;;;5050731;28;19931;-79
2023/05/12 08:05:16;;;;;;;;;;;;;;;;;;5052185;28;20579;-76
2023/05/12 08:07:49;;;;;;;;;;;;;;;;;;5039569;28;19928;-80
2023/05/12 08:10:18;;;;;;;;;;;;;;;;;;5058897;28;19928;-81
2023/05/12 08:12:45;;;;;;;;;;;;;;;;;;5046715;28;19928;-81
2023/05/12 08:15:13;;;;;;;;;;;;;;;;;;5048360;28;19936;-79
2023/05/12 08:17:45;;;;;;;;;;;;;;;;;;5045593;28;19934;-77
2023/05/12 08:20:13;;;;;;;;;;;;;;;;;;5046397;28;19929;-77
2023/05/12 08:22:46;;;;;;;;;;;;;;;;;;5055778;28;20293;-78
2023/05/12 08:25:14;;;;;;;;;;;;;;;;;;5049657;28;19935;-78
2023/05/12 08:27:41;;;;;;;;;;;;;;;;;;5044443;28;19924;-80
2023/05/12 08:30:09;;;;;;;;;;;;;;;;;;5044226;28;20795;-77
2023/05/12 08:32:36;;;;;;;;;;;;;;;;;;5049562;28;19920;-80
2023/05/12 08:35:04;;;;;;;;;;;;;;;;;;5054358;28;19928;-81
2023/05/12 08:37:32;;;;;;;;;;;;;;;;;;5046351;28;19928;-81
2023/05/12 08:39:59;;;;;;;;;;;;;;;;;;5049400;28;19935;-80
2023/05/12 08:42:27;;;;;;;;;;;;;;;;;;5053772;28;19935;-81
2023/05/12 08:44:54;;;;;;;;;;;;;;;;;;5056619;28;19924;-80
2023/05/12 08:47:24;;;;;;;;;;;;;;;;;;5047912;28;19928;-77
2023/05/12 08:50:00;;;;;;;;;;;;;;;;;;5054810;28;20736;-79
2023/05/12 08:52:28;;;;;;;;;;;;;;;;;;5056244;28;19935;-78
2023/05/12 08:54:55;;;;;;;;;;;;;;;;;;5047432;28;19928;-80
2023/05/12 08:57:23;;;;;;;;;;;;;;;;;;5045863;28;20550;-79
2023/05/12 08:59:50;;;;;;;;;;;;;;;;;;5040505;28;20414;-79
2023/05/12 09:05:02;;;;;;;;;;;;;;;;;;5047541;28;19936;-79
2023/05/12 09:07:30;;;;;;;;;;;;;;;;;;5041590;28;19935;-80
2023/05/12 09:09:57;;;;;;;;;;;;;;;;;;5043602;28;20575;-81
2023/05/12 09:12:25;;;;;;;;;;;;;;;;;;5044004;28;19950;-80
2023/05/12 09:14:58;;;;;;;;;;;;;;;;;;5042209;28;19928;-78
2023/05/12 09:17:25;;;;;;;;;;;;;;;;;;5042861;28;19928;-81
2023/05/12 09:19:53;;;;;;;;;;;;;;;;;;5057420;28;19935;-80
2023/05/12 09:22:25;;;;;;;;;;;;;;;;;;5050478;28;19928;-78
2023/05/12 09:24:58;;;;;;;;;;;;;;;;;;5057679;28;19928;-79
2023/05/12 09:27:26;;;;;;;;;;;;;;;;;;5050040;28;19928;-81
2023/05/12 09:29:53;;;;;;;;;;;;;;;;;;5051497;28;19929;-79
2023/05/12 09:32:23;;;;;;;;;;;;;;;;;;5048118;28;19924;-83
2023/05/12 09:34:51;;;;;;;;;;;;;;;;;;5052370;28;19928;-80
2023/05/12 09:37:18;;;;;;;;;;;;;;;;;;5054776;28;19928;-81
2023/05/12 09:39:46;;;;;;;;;;;;;;;;;;5052771;28;20034;-81
2023/05/12 09:42:14;;;;;;;;;;;;;;;;;;5053855;28;19928;-82
2023/05/12 09:44:41;;;;;;;;;;;;;;;;;;5057453;28;19928;-83
2023/05/12 09:47:14;;;;;;;;;;;;;;;;;;5049196;28;19936;-82
2023/05/12 09:49:42;;;;;;;;;;;;;;;;;;5051890;28;20581;-79
2023/05/12 09:52:09;;;;;;;;;;;;;;;;;;5051933;28;20561;-78
2023/05/12 09:54:37;;;;;;;;;;;;;;;;;;5049560;28;20513;-81
2023/05/12 09:57:04;;;;;;;;;;;;;;;;;;5047891;28;19940;-79
2023/05/12 09:59:32;;;;;;;;;;;;;;;;;;5044369;28;20468;-82
2023/05/12 10:01:59;;;;;;;;;;;;;;;;;;5047972;28;19935;-80
2023/05/12 10:04:27;;;;;;;;;;;;;;;;;;5051289;28;20389;-82
2023/05/12 10:06:55;;;;;;;;;;;;;;;;;;5054959;28;20278;-83
2023/05/12 10:09:22;;;;;;;;;;;;;;;;;;5060834;28;19937;-79
2023/05/12 10:11:50;;;;;;;;;;;;;;;;;;5045170;28;19928;-83
2023/05/12 10:14:22;;;;;;;;;;;;;;;;;;5052135;28;19932;-83
2023/05/12 10:16:50;;;;;;;;;;;;;;;;;;5049289;28;19933;-79
2023/05/12 10:19:17;;;;;;;;;;;;;;;;;;5051919;28;20565;-82
2023/05/12 10:21:45;;;;;;;;;;;;;;;;;;5049170;28;19940;-80
2023/05/12 10:24:13;;;;;;;;;;;;;;;;;;5052542;28;19928;-79
2023/05/12 10:26:40;;;;;;;;;;;;;;;;;;5052109;28;20953;-80
2023/05/12 10:29:08;;;;;;;;;;;;;;;;;;5048504;28;19924;-80
2023/05/12 10:31:36;;;;;;;;;;;;;;;;;;5052132;28;19928;-83
2023/05/12 10:34:03;;;;;;;;;;;;;;;;;;5050621;28;19936;-78
2023/05/12 10:36:31;;;;;;;;;;;;;;;;;;5049162;28;20439;-79
2023/05/12 10:38:58;;;;;;;;;;;;;;;;;;5049738;28;19930;-81
2023/05/12 10:41:26;;;;;;;;;;;;;;;;;;5054221;28;19935;-79
2023/05/12 10:43:54;;;;;;;;;;;;;;;;;;5049038;28;19935;-80
2023/05/12 10:46:21;;;;;;;;;;;;;;;;;;5054804;28;19924;-80
2023/05/12 10:48:49;;;;;;;;;;;;;;;;;;5047369;28;19928;-81
2023/05/12 10:51:16;;;;;;;;;;;;;;;;;;5046425;28;19925;-80
2023/05/12 10:53:44;;;;;;;;;;;;;;;;;;5047345;28;19928;-82
2023/05/12 10:56:11;;;;;;;;;;;;;;;;;;5047564;28;19929;-80
2023/05/12 10:58:40;;;;;;;;;;;;;;;;;;5046755;28;19935;-78
2023/05/12 11:01:08;;;;;;;;;;;;;;;;;;5054474;28;20496;-80
2023/05/12 11:03:40;;;;;;;;;;;;;;;;;;5057299;28;19928;-80
2023/05/12 11:06:08;;;;;;;;;;;;;;;;;;5050872;28;19920;-79
2023/05/12 11:08:35;;;;;;;;;;;;;;;;;;5050995;28;19925;-82
2023/05/12 11:11:03;;;;;;;;;;;;;;;;;;5050835;28;19931;-81
2023/05/12 11:13:31;;;;;;;;;;;;;;;;;;5036585;28;19929;-79
2023/05/12 11:15:58;;;;;;;;;;;;;;;;;;5049577;28;19928;-80
2023/05/12 11:18:31;;;;;;;;;;;;;;;;;;5054515;28;19929;-82
2023/05/12 11:20:58;;;;;;;;;;;;;;;;;;5052351;28;19935;-79
2023/05/12 11:23:27;;;;;;;;;;;;;;;;;;5050309;28;19935;-84
2023/05/12 11:25:55;;;;;;;;;;;;;;;;;;5047951;28;19928;-78
2023/05/12 11:28:22;;;;;;;;;;;;;;;;;;5055696;28;19939;-81
2023/05/12 11:30:50;;;;;;;;;;;;;;;;;;5046456;28;19928;-81
2023/05/12 11:33:17;;;;;;;;;;;;;;;;;;5051258;28;19935;-78
2023/05/12 11:35:50;;;;;;;;;;;;;;;;;;5046757;28;19920;-80
2023/05/12 11:38:17;;;;;;;;;;;;;;;;;;5051037;28;19950;-78
2023/05/12 11:40:45;;;;;;;;;;;;;;;;;;5054227;28;19924;-77
2023/05/12 11:43:17;;;;;;;;;;;;;;;;;;5044264;28;19931;-81
2023/05/12 11:45:45;;;;;;;;;;;;;;;;;;5051075;28;19935;-81
2023/05/12 11:48:12;;;;;;;;;;;;;;;;;;5052111;28;19971;-77
2023/05/12 11:50:40;;;;;;;;;;;;;;;;;;5046286;28;19950;-78
2023/05/12 11:53:07;;;;;;;;;;;;;;;;;;5052481;28;19927;-83
2023/05/12 11:55:35;;;;;;;;;;;;;;;;;;5056877;28;19928;-80
2023/05/12 11:58:07;;;;;;;;;;;;;;;;;;5045639;28;19928;-78
2023/05/12 12:00:35;;;;;;;;;;;;;;;;;;5047380;28;19932;-78
2023/05/12 12:03:03;;;;;;;;;;;;;;;;;;5047777;28;20411;-77
2023/05/12 12:05:31;;;;;;;;;;;;;;;;;;5048019;28;19935;-79
2023/05/12 12:07:58;;;;;;;;;;;;;;;;;;5044514;28;20453;-81
2023/05/12 12:10:30;;;;;;;;;;;;;;;;;;5039178;28;19935;-79
2023/05/12 12:12:58;;;;;;;;;;;;;;;;;;5037678;28;20509;-82
2023/05/12 12:15:26;;;;;;;;;;;;;;;;;;5046062;28;20230;-81
2023/05/12 12:17:53;;;;;;;;;;;;;;;;;;5048266;28;19935;-82
2023/05/12 12:20:23;;;;;;;;;;;;;;;;;;5043721;28;20266;-79
2023/05/12 12:22:51;;;;;;;;;;;;;;;;;;5037277;28;20305;-81
2023/05/12 12:25:18;;;;;;;;;;;;;;;;;;5038735;28;20018;-82
2023/05/12 12:27:46;;;;;;;;;;;;;;;;;;5042975;28;19938;-80
2023/05/12 12:30:13;;;;;;;;;;;;;;;;;;5042771;28;19928;-80
2023/05/12 12:32:41;;;;;;;;;;;;;;;;;;5039551;28;19935;-83
2023/05/12 12:35:08;;;;;;;;;;;;;;;;;;5041998;28;19928;-82
2023/05/12 12:37:36;;;;;;;;;;;;;;;;;;5045120;28;19924;-79
2023/05/12 12:40:09;;;;;;;;;;;;;;;;;;5042040;28;20632;-78
2023/05/12 12:42:37;;;;;;;;;;;;;;;;;;5043974;28;19928;-79
2023/05/12 12:45:04;;;;;;;;;;;;;;;;;;5041992;28;19927;-81
2023/05/12 12:47:32;;;;;;;;;;;;;;;;;;5047757;28;19928;-80
2023/05/12 12:49:59;;;;;;;;;;;;;;;;;;5045598;28;19932;-83
2023/05/12 12:52:32;;;;;;;;;;;;;;;;;;5043257;28;19943;-82
2023/05/12 12:54:59;;;;;;;;;;;;;;;;;;5043761;28;20255;-79
2023/05/12 12:57:27;;;;;;;;;;;;;;;;;;5058798;28;19932;-79
2023/05/12 13:00:00;;;;;;;;;;;;;;;;;;5043587;28;19935;-79
2023/05/12 13:02:27;;;;;;;;;;;;;;;;;;5050762;28;19939;-80
2023/05/12 13:04:55;;;;;;;;;;;;;;;;;;5051765;28;19936;-81
2023/05/12 13:07:22;;;;;;;;;;;;;;;;;;5050339;28;19928;-81
2023/05/12 13:09:50;;;;;;;;;;;;;;;;;;5048823;28;19957;-81
2023/05/12 13:12:18;;;;;;;;;;;;;;;;;;5047284;28;19929;-78
2023/05/12 13:14:45;;;;;;;;;;;;;;;;;;5049686;28;19929;-81
2023/05/12 13:17:13;;;;;;;;;;;;;;;;;;5047532;28;19920;-83
2023/05/12 13:19:45;;;;;;;;;;;;;;;;;;5053142;28;19928;-81
2023/05/12 13:22:13;;;;;;;;;;;;;;;;;;5047994;28;19928;-83
2023/05/12 13:24:46;;;;;;;;;;;;;;;;;;5048914;28;20035;-78
2023/05/12 13:27:13;;;;;;;;;;;;;;;;;;5038966;28;19925;-80
2023/05/12 13:29:45;;;;;;;;;;;;;;;;;;5055882;28;19935;-78
2023/05/12 13:32:13;;;;;;;;;;;;;;;;;;5055429;28;19928;-79
2023/05/12 13:34:41;;;;;;;;;;;;;;;;;;5039622;28;19943;-79
2023/05/12 13:37:13;;;;;;;;;;;;;;;;;;5047322;28;19935;-79
2023/05/12 13:39:41;;;;;;;;;;;;;;;;;;5049183;28;19936;-80
2023/05/12 13:42:09;;;;;;;;;;;;;;;;;;5043664;28;19924;-83
2023/05/12 13:44:36;;;;;;;;;;;;;;;;;;5037858;28;20569;-79
2023/05/12 13:47:09;;;;;;;;;;;;;;;;;;5039817;28;19929;-83
2023/05/12 13:49:36;;;;;;;;;;;;;;;;;;5049535;28;19936;-80
2023/05/12 13:52:04;;;;;;;;;;;;;;;;;;5047603;28;19924;-79
2023/05/12 13:54:31;;;;;;;;;;;;;;;;;;5050170;28;20685;-80
2023/05/12 13:57:02;;;;;;;;;;;;;;;;;;5046196;28;19928;-81
2023/05/12 13:59:30;;;;;;;;;;;;;;;;;;5048649;28;19928;-83
2023/05/12 14:01:58;;;;;;;;;;;;;;;;;;5048768;28;19928;-79
2023/05/12 14:04:25;;;;;;;;;;;;;;;;;;5047000;28;19928;-78
2023/05/12 14:06:54;;;;;;;;;;;;;;;;;;5045861;28;19935;-82
2023/05/12 14:09:22;;;;;;;;;;;;;;;;;;5042495;28;19928;-83
2023/05/12 14:11:49;;;;;;;;;;;;;;;;;;5049446;28;19924;-81
2023/05/12 14:14:17;;;;;;;;;;;;;;;;;;5048804;28;19935;-80
2023/05/12 14:16:44;;;;;;;;;;;;;;;;;;5047687;28;19936;-80
2023/05/12 14:19:12;;;;;;;;;;;;;;;;;;5044361;28;19928;-79
2023/05/12 14:21:40;;;;;;;;;;;;;;;;;;5048303;28;19986;-83
2023/05/12 14:24:07;;;;;;;;;;;;;;;;;;5045903;28;19935;-81
2023/05/12 14:26:35;;;;;;;;;;;;;;;;;;5053922;28;20741;-83
2023/05/12 14:29:02;;;;;;;;;;;;;;;;;;5051832;28;19931;-80
2023/05/12 14:31:31;;;;;;;;;;;;;;;;;;5053139;28;20607;-81
2023/05/12 14:33:59;;;;;;;;;;;;;;;;;;5053961;28;19936;-80
2023/05/12 14:36:26;;;;;;;;;;;;;;;;;;5045080;28;19929;-80
2023/05/12 14:38:55;;;;;;;;;;;;;;;;;;5045979;28;19935;-81
2023/05/12 14:41:23;;;;;;;;;;;;;;;;;;5051184;28;19928;-80
2023/05/12 14:43:50;;;;;;;;;;;;;;;;;;5046174;28;20320;-80
2023/05/12 14:46:18;;;;;;;;;;;;;;;;;;5046766;28;19935;-79
2023/05/12 14:48:46;;;;;;;;;;;;;;;;;;5025329;28;20499;-80
2023/05/12 14:51:14;;;;;;;;;;;;;;;;;;5049093;28;19920;-82
2023/05/12 14:53:41;;;;;;;;;;;;;;;;;;5046091;28;19936;-81
2023/05/12 14:56:09;;;;;;;;;;;;;;;;;;5046743;28;19935;-80
2023/05/12 14:58:41;;;;;;;;;;;;;;;;;;5055492;28;19928;-81
2023/05/12 15:01:09;;;;;;;;;;;;;;;;;;5053299;28;20692;-79
2023/05/12 15:03:42;;;;;;;;;;;;;;;;;;5054430;28;19939;-81
2023/05/12 15:06:15;;;;;;;;;;;;;;;;;;5047685;28;19928;-79
2023/05/12 15:08:42;;;;;;;;;;;;;;;;;;5048725;28;20472;-80
2023/05/12 15:11:15;;;;;;;;;;;;;;;;;;5050118;28;19924;-81
2023/05/12 15:13:47;;;;;;;;;;;;;;;;;;5042584;28;19935;-83
2023/05/12 15:16:14;;;;;;;;;;;;;;;;;;5042722;28;20006;-79
2023/05/12 15:18:42;;;;;;;;;;;;;;;;;;5044526;28;19935;-83
2023/05/12 15:21:09;;;;;;;;;;;;;;;;;;5049342;28;19929;-79
2023/05/12 15:23:37;;;;;;;;;;;;;;;;;;5052219;28;19924;-81
2023/05/12 15:26:05;;;;;;;;;;;;;;;;;;5053643;28;20499;-81
2023/05/12 15:28:37;;;;;;;;;;;;;;;;;;5047473;28;20656;-79
2023/05/12 15:31:05;;;;;;;;;;;;;;;;;;5052299;28;19928;-81
2023/05/12 15:33:32;;;;;;;;;;;;;;;;;;5050209;28;19951;-83
2023/05/12 15:36:06;;;;;;;;;;;;;;;;;;5044746;28;19928;-84
2023/05/12 15:38:41;;;;;;;;;;;;;;;;;;5048790;28;20581;-81
2023/05/12 15:41:08;;;;;;;;;;;;;;;;;;5047571;28;19920;-80
2023/05/12 15:43:37;;;;;;;;;;;;;;;;;;5050497;28;19935;-81
2023/05/12 15:46:05;;;;;;;;;;;;;;;;;;5042554;28;19935;-84
2023/05/12 15:48:33;;;;;;;;;;;;;;;;;;5020245;28;21041;-82
2023/05/12 15:51:00;;;;;;;;;;;;;;;;;;5042322;28;19928;-84
2023/05/12 15:53:28;;;;;;;;;;;;;;;;;;5051962;28;21263;-80
2023/05/12 15:55:55;;;;;;;;;;;;;;;;;;5046756;28;19935;-81
2023/05/12 15:58:23;;;;;;;;;;;;;;;;;;5041834;28;19935;-83
2023/05/12 16:00:50;;;;;;;;;;;;;;;;;;5042363;28;19951;-81
2023/05/12 16:03:18;;;;;;;;;;;;;;;;;;5042934;28;19935;-82
2023/05/12 16:05:50;;;;;;;;;;;;;;;;;;5046010;28;19924;-81
2023/05/12 16:08:18;;;;;;;;;;;;;;;;;;5047378;28;19929;-81
2023/05/12 16:10:46;;;;;;;;;;;;;;;;;;5044765;28;19935;-81
2023/05/12 16:13:13;;;;;;;;;;;;;;;;;;5045323;28;19935;-82
2023/05/12 16:15:41;;;;;;;;;;;;;;;;;;5046372;28;19939;-81
2023/05/12 16:18:08;;;;;;;;;;;;;;;;;;5044779;28;19935;-81
2023/05/12 16:20:36;;;;;;;;;;;;;;;;;;5051554;28;19931;-82
2023/05/12 16:23:03;;;;;;;;;;;;;;;;;;5048134;28;19921;-80
2023/05/12 16:25:36;;;;;;;;;;;;;;;;;;5045942;28;20599;-79
2023/05/12 16:28:04;;;;;;;;;;;;;;;;;;5041033;28;19928;-82
2023/05/12 16:30:36;;;;;;;;;;;;;;;;;;5040919;28;20293;-81
2023/05/12 16:33:05;;;;;;;;;;;;;;;;;;5044608;28;20396;-83
2023/05/12 16:35:33;;;;;;;;;;;;;;;;;;5053085;28;19928;-83
2023/05/12 16:38:00;;;;;;;;;;;;;;;;;;5046701;28;19935;-80
2023/05/12 16:40:28;;;;;;;;;;;;;;;;;;5045920;28;19928;-82
2023/05/12 16:42:55;;;;;;;;;;;;;;;;;;5043094;28;20493;-81
2023/05/12 16:45:28;;;;;;;;;;;;;;;;;;5043959;28;21073;-82
2023/05/12 16:47:55;;;;;;;;;;;;;;;;;;5019451;28;19935;-80
2023/05/12 16:50:24;;;;;;;;;;;;;;;;;;5041927;28;19960;-84
2023/05/12 16:52:52;;;;;;;;;;;;;;;;;;5041348;28;19928;-79
2023/05/12 16:55:20;;;;;;;;;;;;;;;;;;5042072;28;20014;-81
2023/05/12 16:57:52;;;;;;;;;;;;;;;;;;5042034;28;19928;-80